createdAt,value
2019-03-31T00:01:39.013Z,99794.21
2019-03-31T00:04:12.239Z,99794.25
2019-03-31T00:06:45.512Z,99797.52
2019-03-31T00:09:18.833Z,99793.80
2019-03-31T00:11:52.096Z,99795.81
2019-03-31T00:14:25.323Z,99799.88
2019-03-31T00:16:58.507Z,99791.79
2019-03-31T00:19:31.750Z,99801.76
2019-03-31T00:22:05.041Z,99800.72
2019-03-31T00:24:38.268Z,99800.59
2019-03-31T00:27:11.517Z,99798.99
2019-03-31T00:29:44.760Z,99803.28
2019-03-31T00:32:18.006Z,99798.77
2019-03-31T00:34:51.241Z,99804.76
2019-03-31T00:37:24.438Z,99802.25
2019-03-31T00:39:57.674Z,99802.25
2019-03-31T00:42:30.924Z,99800.47
2019-03-31T00:45:04.182Z,99807.61
2019-03-31T00:47:37.607Z,99806.75
2019-03-31T00:50:10.846Z,99800.08
2019-03-31T00:52:44.115Z,99807.57
2019-03-31T00:55:17.447Z,99810.29
2019-03-31T00:57:50.697Z,99810.41
2019-03-31T01:00:41.545Z,99802.63
2019-03-31T01:03:16.408Z,99804.77
2019-03-31T01:05:49.637Z,99801.45
2019-03-31T01:08:23.234Z,99808.22
2019-03-31T01:10:57.528Z,99797.88
2019-03-31T01:13:30.927Z,99793.97
2019-03-31T01:16:04.329Z,99796.38
2019-03-31T01:18:38.181Z,99791.06
2019-03-31T01:21:11.473Z,99793.40
2019-03-31T01:23:44.941Z,99795.31
2019-03-31T01:26:20.997Z,99791.04
2019-03-31T01:28:54.996Z,99792.55
2019-03-31T01:31:50.530Z,99792.16
2019-03-31T01:34:22.744Z,99795.92
2019-03-31T01:36:55.980Z,99797.92
2019-03-31T01:39:31.447Z,99795.84
2019-03-31T01:42:04.677Z,99795.37
2019-03-31T01:44:37.931Z,99796.77
2019-03-31T01:47:11.881Z,99795.48
2019-03-31T01:49:45.208Z,99790.84
2019-03-31T01:52:18.510Z,99789.77
2019-03-31T01:54:52.082Z,99790.38
2019-03-31T01:57:25.296Z,99792.91
2019-03-31T01:59:58.554Z,99794.79
2019-03-31T02:02:31.781Z,99795.95
2019-03-31T02:05:05.742Z,99787.98
2019-03-31T02:07:40.141Z,99790.38
2019-03-31T02:10:13.393Z,99790.06
2019-03-31T02:12:46.605Z,99785.26
2019-03-31T02:15:21.023Z,99788.39
2019-03-31T02:17:54.248Z,99784.92
2019-03-31T02:20:27.498Z,99786.48
2019-03-31T02:23:00.740Z,99784.28
2019-03-31T02:25:33.993Z,99782.31
2019-03-31T02:28:07.220Z,99777.38
2019-03-31T02:30:40.495Z,99780.09
2019-03-31T02:33:13.645Z,99779.83
2019-03-31T02:35:46.903Z,99779.52
2019-03-31T02:38:20.140Z,99776.31
2019-03-31T02:40:53.384Z,99779.00
2019-03-31T02:43:26.619Z,99777.42
2019-03-31T02:45:59.872Z,99778.41
2019-03-31T02:48:33.109Z,99773.58
2019-03-31T02:51:06.306Z,99781.68
2019-03-31T02:53:39.558Z,99780.72
2019-03-31T02:56:12.847Z,99775.30
2019-03-31T02:58:46.098Z,99775.99
2019-03-31T03:01:19.338Z,99771.70
2019-03-31T03:03:52.587Z,99769.62
2019-03-31T03:06:26.251Z,99769.72
2019-03-31T03:09:01.070Z,99773.36
2019-03-31T03:11:36.425Z,99775.08
2019-03-31T03:14:09.651Z,99772.42
2019-03-31T03:16:42.905Z,99774.48
2019-03-31T03:19:16.113Z,99777.04
2019-03-31T03:21:49.453Z,99774.30
2019-03-31T03:24:22.649Z,99777.45
2019-03-31T03:26:56.122Z,99780.77
2019-03-31T03:29:29.416Z,99782.41
2019-03-31T03:32:03.729Z,99780.30
2019-03-31T03:34:37.001Z,99775.56
2019-03-31T03:37:10.263Z,99776.66
2019-03-31T03:39:43.478Z,99782.03
2019-03-31T03:42:16.724Z,99771.83
2019-03-31T03:44:49.951Z,99780.97
2019-03-31T03:47:23.211Z,99782.55
2019-03-31T03:49:56.439Z,99788.31
2019-03-31T03:52:29.681Z,99788.31
2019-03-31T03:55:02.912Z,99786.33
2019-03-31T03:57:36.163Z,99783.16
2019-03-31T04:00:09.416Z,99784.59
2019-03-31T04:02:42.681Z,99780.96
2019-03-31T04:05:15.886Z,99781.26
2019-03-31T04:07:49.133Z,99777.19
2019-03-31T04:11:21.831Z,99780.51
2019-03-31T04:13:55.434Z,99774.86
2019-03-31T04:16:28.700Z,99780.90
2019-03-31T04:19:01.935Z,99768.88
2019-03-31T04:21:35.164Z,99777.45
2019-03-31T04:24:08.394Z,99776.69
2019-03-31T04:26:41.646Z,99780.13
2019-03-31T04:29:14.879Z,99779.22
2019-03-31T04:31:48.132Z,99779.25
2019-03-31T04:34:21.266Z,99783.96
2019-03-31T04:36:54.499Z,99782.75
2019-03-31T04:39:27.723Z,99779.94
2019-03-31T04:42:00.971Z,99776.99
2019-03-31T04:44:34.196Z,99776.21
2019-03-31T04:47:07.444Z,99774.17
2019-03-31T04:49:40.710Z,99774.58
2019-03-31T04:52:13.948Z,99774.08
2019-03-31T04:54:47.213Z,99777.67
2019-03-31T04:57:20.424Z,99784.12
2019-03-31T04:59:53.677Z,99783.88
2019-03-31T05:02:27.445Z,99782.27
2019-03-31T05:05:00.855Z,99778.23
2019-03-31T05:07:34.136Z,99784.46
2019-03-31T05:10:07.703Z,99785.66
2019-03-31T05:12:40.915Z,99787.02
2019-03-31T05:15:15.230Z,99786.02
2019-03-31T05:17:48.448Z,99792.98
2019-03-31T05:20:21.689Z,99788.23
2019-03-31T05:23:03.814Z,99797.91
2019-03-31T05:25:37.339Z,99797.91
2019-03-31T05:28:10.571Z,99800.64
2019-03-31T05:30:43.800Z,99800.94
2019-03-31T05:33:17.146Z,99800.23
2019-03-31T05:35:50.394Z,99801.01
2019-03-31T05:38:23.990Z,99800.48
2019-03-31T05:40:57.163Z,99803.16
2019-03-31T05:43:30.402Z,99801.91
2019-03-31T05:46:03.625Z,99804.45
2019-03-31T05:48:36.858Z,99805.45
2019-03-31T05:51:10.089Z,99806.80
2019-03-31T05:53:43.390Z,99804.53
2019-03-31T05:56:16.659Z,99804.63
2019-03-31T05:58:49.957Z,99807.15
2019-03-31T06:01:31.649Z,99806.97
2019-03-31T06:04:04.954Z,99810.99
2019-03-31T06:06:39.276Z,99808.09
2019-03-31T06:09:13.568Z,99802.16
2019-03-31T06:11:46.898Z,99803.72
2019-03-31T06:14:20.112Z,99807.77
2019-03-31T06:16:53.362Z,99806.74
2019-03-31T06:19:26.588Z,99811.78
2019-03-31T06:21:59.753Z,99813.70
2019-03-31T06:24:33.096Z,99814.84
2019-03-31T06:27:06.342Z,99819.52
2019-03-31T06:29:39.604Z,99818.20
2019-03-31T06:32:13.028Z,99814.88
2019-03-31T06:34:47.650Z,99818.72
2019-03-31T06:37:21.279Z,99818.29
2019-03-31T06:39:54.660Z,99818.81
2019-03-31T06:42:28.012Z,99816.80
2019-03-31T06:45:01.268Z,99822.30
2019-03-31T06:47:34.536Z,99816.68
2019-03-31T06:50:08.466Z,99826.85
2019-03-31T06:52:41.748Z,99820.09
2019-03-31T06:55:15.098Z,99828.72
2019-03-31T06:57:55.022Z,99824.48
2019-03-31T07:00:27.466Z,99828.39
2019-03-31T07:03:00.710Z,99823.78
2019-03-31T07:05:33.923Z,99824.81
2019-03-31T07:08:07.249Z,99818.30
2019-03-31T07:10:40.544Z,99813.28
2019-03-31T07:13:13.780Z,99816.25
2019-03-31T07:15:46.998Z,99815.69
2019-03-31T07:18:20.242Z,99819.13
2019-03-31T07:20:53.465Z,99818.56
2019-03-31T07:23:26.715Z,99820.39
2019-03-31T07:25:59.928Z,99815.20
2019-03-31T07:28:33.190Z,99814.16
2019-03-31T07:31:06.481Z,99812.51
2019-03-31T07:33:39.647Z,99813.91
2019-03-31T07:36:13.826Z,99809.34
2019-03-31T07:38:47.079Z,99812.41
2019-03-31T07:41:20.270Z,99808.88
2019-03-31T07:43:53.500Z,99808.37
2019-03-31T07:46:26.722Z,99810.61
2019-03-31T07:48:59.968Z,99807.17
2019-03-31T07:51:33.186Z,99806.27
2019-03-31T07:54:06.350Z,99810.13
2019-03-31T07:56:39.583Z,99809.38
2019-03-31T07:59:12.879Z,99805.69
2019-03-31T08:01:46.160Z,99805.73
2019-03-31T08:04:19.396Z,99805.31
2019-03-31T08:06:52.615Z,99805.98
2019-03-31T08:09:25.784Z,99801.33
2019-03-31T08:11:59.005Z,99803.45
2019-03-31T08:14:32.353Z,99801.75
2019-03-31T08:17:05.616Z,99803.34
2019-03-31T08:19:38.852Z,99804.45
2019-03-31T08:22:12.072Z,99803.66
2019-03-31T08:24:45.371Z,99805.27
2019-03-31T08:27:18.588Z,99801.20
2019-03-31T08:30:00.058Z,99800.39
2019-03-31T08:32:28.412Z,99803.84
2019-03-31T08:35:01.713Z,99800.91
2019-03-31T08:37:36.008Z,99805.23
2019-03-31T08:40:11.547Z,99802.05
2019-03-31T08:42:44.792Z,99801.59
2019-03-31T08:45:18.155Z,99804.67
2019-03-31T08:47:51.299Z,99801.25
2019-03-31T08:50:24.544Z,99799.91
2019-03-31T08:52:57.759Z,99801.27
2019-03-31T08:55:31.024Z,99797.63
2019-03-31T08:58:04.265Z,99803.16
2019-03-31T09:00:47.871Z,99802.23
2019-03-31T09:03:21.084Z,99795.81
2019-03-31T09:06:01.814Z,99790.06
2019-03-31T09:08:29.255Z,99790.20
2019-03-31T09:11:02.490Z,99788.33
2019-03-31T09:13:35.704Z,99785.16
2019-03-31T09:16:08.934Z,99790.07
2019-03-31T09:18:42.152Z,99784.88
2019-03-31T09:21:15.411Z,99788.80
2019-03-31T09:23:48.647Z,99783.16
2019-03-31T09:26:21.865Z,99780.83
2019-03-31T09:28:55.116Z,99775.97
2019-03-31T09:31:28.328Z,99776.88
2019-03-31T09:34:01.581Z,99778.87
2019-03-31T09:36:34.797Z,99774.11
2019-03-31T09:39:08.553Z,99769.62
2019-03-31T09:41:41.750Z,99777.63
2019-03-31T09:44:14.995Z,99768.72
2019-03-31T09:46:48.226Z,99764.96
2019-03-31T09:49:21.530Z,99765.17
2019-03-31T09:51:54.731Z,99767.28
2019-03-31T09:54:27.998Z,99770.45
2019-03-31T09:57:01.247Z,99767.08
2019-03-31T09:59:34.474Z,99766.39
2019-03-31T10:02:07.696Z,99765.36
2019-03-31T10:04:40.946Z,99770.24
2019-03-31T10:07:14.198Z,99764.75
2019-03-31T10:09:47.523Z,99759.19
2019-03-31T10:12:20.737Z,99757.34
2019-03-31T10:14:54.358Z,99752.86
2019-03-31T10:17:27.663Z,99743.97
2019-03-31T10:20:00.893Z,99748.41
2019-03-31T10:22:34.167Z,99748.80
2019-03-31T10:25:08.424Z,99742.03
2019-03-31T10:27:41.727Z,99742.92
2019-03-31T10:30:18.875Z,99742.56
2019-03-31T10:32:52.083Z,99740.42
2019-03-31T10:35:25.341Z,99741.84
2019-03-31T10:37:58.634Z,99741.77
2019-03-31T10:40:31.871Z,99737.84
2019-03-31T10:43:05.084Z,99737.00
2019-03-31T10:45:38.352Z,99734.75
2019-03-31T10:48:20.407Z,99732.70
2019-03-31T10:50:46.503Z,99729.15
2019-03-31T10:53:19.715Z,99732.58
2019-03-31T10:55:53.002Z,99730.84
2019-03-31T10:58:26.314Z,99730.31
2019-03-31T11:00:59.559Z,99723.61
2019-03-31T11:03:33.207Z,99727.47
2019-03-31T11:06:06.656Z,99727.60
2019-03-31T11:08:39.970Z,99729.52
2019-03-31T11:11:13.210Z,99729.41
2019-03-31T11:13:46.356Z,99731.06
2019-03-31T11:16:19.593Z,99734.64
2019-03-31T11:18:52.798Z,99732.52
2019-03-31T11:21:44.017Z,99735.20
2019-03-31T11:24:17.164Z,99730.44
2019-03-31T11:26:50.409Z,99736.23
2019-03-31T11:29:23.631Z,99727.92
2019-03-31T11:31:56.965Z,99728.82
2019-03-31T11:34:30.171Z,99733.61
2019-03-31T11:37:13.483Z,99737.14
2019-03-31T11:39:38.333Z,99737.89
2019-03-31T11:42:11.627Z,99731.17
2019-03-31T11:44:44.835Z,99737.44
2019-03-31T11:47:18.111Z,99735.93
2019-03-31T11:49:51.263Z,99729.55
2019-03-31T11:52:24.908Z,99734.02
2019-03-31T11:54:58.150Z,99729.08
2019-03-31T11:57:31.382Z,99729.02
2019-03-31T12:00:05.515Z,99721.14
2019-03-31T12:02:38.823Z,99722.56
2019-03-31T12:05:12.082Z,99717.78
2019-03-31T12:07:47.142Z,99720.33
2019-03-31T12:10:20.379Z,99709.52
2019-03-31T12:12:53.663Z,99711.03
2019-03-31T12:15:26.946Z,99710.92
2019-03-31T12:18:00.181Z,99707.91
2019-03-31T12:20:33.386Z,99703.27
2019-03-31T12:23:06.748Z,99700.91
2019-03-31T12:25:40.004Z,99698.82
2019-03-31T12:28:13.256Z,99692.22
2019-03-31T12:30:46.457Z,99689.94
2019-03-31T12:33:19.693Z,99691.08
2019-03-31T12:35:52.907Z,99696.95
2019-03-31T12:38:26.150Z,99692.32
2019-03-31T12:40:59.407Z,99687.38
2019-03-31T12:43:32.659Z,99687.59
2019-03-31T12:46:05.960Z,99684.26
2019-03-31T12:48:39.201Z,99687.23
2019-03-31T12:51:12.410Z,99684.14
2019-03-31T12:53:45.704Z,99680.19
2019-03-31T12:56:18.962Z,99686.94
2019-03-31T12:58:52.207Z,99676.07
2019-03-31T13:01:25.442Z,99674.73
2019-03-31T13:03:58.724Z,99669.69
2019-03-31T13:06:31.961Z,99668.52
2019-03-31T13:09:06.328Z,99664.27
2019-03-31T13:11:39.562Z,99666.98
2019-03-31T13:14:12.764Z,99665.96
2019-03-31T13:16:45.928Z,99665.73
2019-03-31T13:19:19.147Z,99661.95
2019-03-31T13:21:52.480Z,99658.69
2019-03-31T13:24:25.688Z,99656.24
2019-03-31T13:26:58.938Z,99655.60
2019-03-31T13:29:32.195Z,99660.09
2019-03-31T13:32:05.632Z,99653.59
2019-03-31T13:34:38.868Z,99655.05
2019-03-31T13:37:12.075Z,99651.19
2019-03-31T13:39:45.310Z,99658.48
2019-03-31T13:42:18.527Z,99651.67
2019-03-31T13:44:51.763Z,99652.16
2019-03-31T13:47:25.067Z,99652.30
2019-03-31T13:49:58.285Z,99648.08
2019-03-31T13:52:31.525Z,99640.56
2019-03-31T13:55:05.219Z,99641.00
2019-03-31T13:57:40.144Z,99639.67
2019-03-31T14:00:14.310Z,99636.36
2019-03-31T14:02:47.589Z,99628.75
2019-03-31T14:05:20.793Z,99629.56
2019-03-31T14:07:54.030Z,99623.40
2019-03-31T14:10:27.370Z,99621.48
2019-03-31T14:13:00.586Z,99618.69
2019-03-31T14:15:33.906Z,99619.50
2019-03-31T14:18:07.132Z,99617.38
2019-03-31T14:20:40.363Z,99614.17
2019-03-31T14:23:13.607Z,99617.56
2019-03-31T14:25:46.839Z,99614.38
2019-03-31T14:28:20.100Z,99606.63
2019-03-31T14:30:53.279Z,99608.55
2019-03-31T14:33:26.488Z,99611.77
2019-03-31T14:35:59.713Z,99606.61
2019-03-31T14:38:39.891Z,99609.97
2019-03-31T14:41:07.892Z,99607.99
2019-03-31T14:43:41.098Z,99604.22
2019-03-31T14:46:14.339Z,99597.53
2019-03-31T14:48:47.556Z,99591.05
2019-03-31T14:51:23.480Z,99591.45
2019-03-31T14:53:56.686Z,99592.08
2019-03-31T14:56:29.956Z,99587.69
2019-03-31T14:59:03.176Z,99589.94
2019-03-31T15:01:36.403Z,99592.66
2019-03-31T15:04:09.620Z,99585.86
2019-03-31T15:06:42.851Z,99591.98
2019-03-31T15:09:16.062Z,99590.97
2019-03-31T15:11:49.234Z,99593.19
2019-03-31T15:14:22.453Z,99592.31
2019-03-31T15:16:55.697Z,99590.33
2019-03-31T15:19:28.919Z,99590.53
2019-03-31T15:22:02.162Z,99591.61
2019-03-31T15:24:35.372Z,99586.43
2019-03-31T15:27:08.612Z,99591.59
2019-03-31T15:29:41.823Z,99585.62
2019-03-31T15:32:15.067Z,99588.05
2019-03-31T15:34:48.278Z,99583.98
2019-03-31T15:37:21.530Z,99585.14
2019-03-31T15:39:54.763Z,99584.66
2019-03-31T15:42:28.080Z,99586.06
2019-03-31T15:45:01.221Z,99581.31
2019-03-31T15:47:35.636Z,99579.67
2019-03-31T15:50:08.834Z,99584.33
2019-03-31T15:52:42.088Z,99581.37
2019-03-31T15:55:15.325Z,99583.64
2019-03-31T15:57:48.586Z,99583.59
2019-03-31T16:00:21.803Z,99581.95
2019-03-31T16:02:55.029Z,99584.16
2019-03-31T16:05:28.283Z,99579.63
2019-03-31T16:08:00.749Z,99583.28
2019-03-31T16:10:33.200Z,99584.09
2019-03-31T16:13:05.615Z,99585.17
2019-03-31T16:15:38.103Z,99589.13
2019-03-31T16:18:10.536Z,99580.40
2019-03-31T16:20:43.015Z,99584.27
2019-03-31T16:23:15.443Z,99584.41
2019-03-31T16:25:50.506Z,99583.63
2019-03-31T16:28:22.920Z,99586.64
2019-03-31T16:30:55.311Z,99587.58
2019-03-31T16:33:27.737Z,99584.47
2019-03-31T16:36:00.122Z,99583.74
2019-03-31T16:38:32.561Z,99591.57
2019-03-31T16:41:05.076Z,99592.81
2019-03-31T16:43:37.566Z,99592.11
2019-03-31T16:46:09.960Z,99589.27
2019-03-31T16:48:42.323Z,99590.31
2019-03-31T16:51:14.718Z,99587.37
2019-03-31T16:53:47.166Z,99585.70
2019-03-31T16:56:19.598Z,99584.81
2019-03-31T16:58:52.023Z,99588.63
2019-03-31T17:01:24.415Z,99591.73
2019-03-31T17:03:56.871Z,99594.74
2019-03-31T17:06:29.278Z,99596.47
2019-03-31T17:09:01.823Z,99593.12
2019-03-31T17:11:35.905Z,99601.31
2019-03-31T17:14:08.339Z,99608.52
2019-03-31T17:16:40.759Z,99615.55
2019-03-31T17:19:13.198Z,99623.38
2019-03-31T17:21:45.616Z,99636.89
2019-03-31T17:24:18.069Z,99630.64
2019-03-31T17:26:50.414Z,99633.00
2019-03-31T17:29:22.874Z,99629.77
2019-03-31T17:31:55.284Z,99636.80
2019-03-31T17:34:27.768Z,99635.84
2019-03-31T17:37:00.171Z,99639.16
2019-03-31T17:39:32.614Z,99643.80
2019-03-31T17:42:05.125Z,99650.56
2019-03-31T17:44:37.486Z,99647.95
2019-03-31T17:47:09.922Z,99654.06
2019-03-31T17:49:42.358Z,99651.84
2019-03-31T17:52:14.853Z,99649.94
2019-03-31T17:54:47.637Z,99655.23
2019-03-31T17:57:20.168Z,99655.88
2019-03-31T17:59:53.771Z,99658.31
2019-03-31T18:02:26.928Z,99659.66
2019-03-31T18:04:59.610Z,99663.44
2019-03-31T18:07:35.476Z,99663.81
2019-03-31T18:10:21.066Z,99662.23
2019-03-31T18:12:53.237Z,99668.11
2019-03-31T18:15:25.682Z,99672.41
2019-03-31T18:17:59.331Z,99673.27
2019-03-31T18:20:31.749Z,99678.75
2019-03-31T18:23:04.265Z,99683.76
2019-03-31T18:25:36.697Z,99684.51
2019-03-31T18:28:09.218Z,99689.00
2019-03-31T18:30:41.644Z,99688.89
2019-03-31T18:33:14.064Z,99692.60
2019-03-31T18:35:46.508Z,99691.69
2019-03-31T18:38:18.922Z,99698.20
2019-03-31T18:40:51.356Z,99701.03
2019-03-31T18:43:23.771Z,99713.97
2019-03-31T18:45:56.158Z,99714.02
2019-03-31T18:48:28.647Z,99716.07
2019-03-31T18:51:01.099Z,99722.59
2019-03-31T18:53:50.735Z,99725.20
2019-03-31T18:56:51.311Z,99733.00
2019-03-31T18:59:38.627Z,99729.31
2019-03-31T19:02:30.908Z,99734.66
2019-03-31T19:05:24.655Z,99733.46
2019-03-31T19:08:14.799Z,99736.95
2019-03-31T19:10:56.550Z,99740.29
2019-03-31T19:13:55.115Z,99745.75
2019-03-31T19:16:53.304Z,99749.41
2019-03-31T19:19:44.654Z,99751.86
2019-03-31T19:22:39.041Z,99761.34
2019-03-31T19:25:30.387Z,99755.31
2019-03-31T19:28:11.459Z,99761.06
2019-03-31T19:30:50.423Z,99763.31
2019-03-31T19:33:35.354Z,99760.53
2019-03-31T19:36:17.112Z,99760.30
2019-03-31T19:39:12.194Z,99768.65
2019-03-31T19:42:15.699Z,99772.46
2019-03-31T19:44:59.845Z,99780.86
2019-03-31T19:48:06.238Z,99785.16
2019-03-31T19:51:03.653Z,99785.23
2019-03-31T19:54:10.343Z,99787.39
2019-03-31T19:56:48.490Z,99791.33
2019-03-31T19:59:55.248Z,99798.80
2019-03-31T20:02:45.483Z,99795.92
2019-03-31T20:05:32.142Z,99802.76
2019-03-31T20:08:25.774Z,99802.03
2019-03-31T20:11:29.342Z,99805.03
2019-03-31T20:14:22.888Z,99807.41
2019-03-31T20:17:20.304Z,99814.54
2019-03-31T20:20:14.736Z,99817.54
2019-03-31T20:23:07.270Z,99815.21
2019-03-31T20:26:01.859Z,99815.81
2019-03-31T20:28:42.976Z,99828.01
2019-03-31T20:31:35.774Z,99828.17
2019-03-31T20:34:17.196Z,99828.41
2019-03-31T20:37:16.219Z,99836.52
2019-03-31T20:40:10.556Z,99828.00
2019-03-31T20:43:01.658Z,99824.22
2019-03-31T20:45:34.144Z,99828.34
2019-03-31T20:48:06.708Z,99831.55
2019-03-31T20:50:39.105Z,99838.34
2019-03-31T20:53:11.523Z,99834.45
2019-03-31T20:55:44.003Z,99835.89
2019-03-31T20:58:17.611Z,99841.31
2019-03-31T21:00:50.047Z,99842.47
2019-03-31T21:03:22.497Z,99841.42
2019-03-31T21:05:54.949Z,99839.65
2019-03-31T21:08:27.306Z,99845.59
2019-03-31T21:10:59.713Z,99842.78
2019-03-31T21:13:32.175Z,99845.87
2019-03-31T21:16:04.745Z,99845.34
2019-03-31T21:18:37.159Z,99845.30
2019-03-31T21:21:09.584Z,99844.93
2019-03-31T21:23:42.001Z,99847.94
2019-03-31T21:26:14.441Z,99853.56
2019-03-31T21:28:46.872Z,99848.86
2019-03-31T21:31:19.304Z,99852.66
2019-03-31T21:33:51.794Z,99856.51
2019-03-31T21:36:24.228Z,99851.73
2019-03-31T21:38:56.642Z,99852.31
2019-03-31T21:41:29.083Z,99856.32
2019-03-31T21:44:01.502Z,99859.02
2019-03-31T21:46:33.958Z,99852.06
2019-03-31T21:49:06.397Z,99855.23
2019-03-31T21:51:38.837Z,99861.48
2019-03-31T21:54:11.323Z,99856.91
2019-03-31T21:56:43.785Z,99858.53
2019-03-31T21:59:16.227Z,99857.72
2019-03-31T22:01:48.943Z,99856.03
2019-03-31T22:04:21.463Z,99860.97
2019-03-31T22:06:53.980Z,99860.71
2019-03-31T22:09:26.385Z,99858.57
2019-03-31T22:11:58.741Z,99859.56
2019-03-31T22:14:31.153Z,99861.12
2019-03-31T22:17:03.615Z,99855.36
2019-03-31T22:19:36.022Z,99861.08
2019-03-31T22:22:08.456Z,99862.86
2019-03-31T22:24:40.897Z,99862.81
2019-03-31T22:27:13.379Z,99864.22
2019-03-31T22:29:45.822Z,99860.11
2019-03-31T22:32:18.184Z,99860.66
2019-03-31T22:34:50.599Z,99861.04
2019-03-31T22:37:23.025Z,99861.17
2019-03-31T22:39:55.440Z,99857.38
2019-03-31T22:42:27.874Z,99861.95
2019-03-31T22:45:00.391Z,99861.38
2019-03-31T22:47:34.234Z,99858.36
2019-03-31T22:50:06.648Z,99857.09
2019-03-31T22:52:39.089Z,99857.09
2019-03-31T22:55:11.499Z,99855.19
2019-03-31T22:57:44.030Z,99864.81
2019-03-31T23:00:22.179Z,99862.03
2019-03-31T23:02:56.213Z,99859.30
2019-03-31T23:05:28.625Z,99857.48
2019-03-31T23:08:01.093Z,99855.73
2019-03-31T23:10:33.507Z,99853.12
2019-03-31T23:13:05.944Z,99852.31
2019-03-31T23:15:38.400Z,99851.52
2019-03-31T23:18:10.835Z,99852.41
2019-03-31T23:20:43.248Z,99850.17
2019-03-31T23:23:15.642Z,99849.20
2019-03-31T23:25:48.104Z,99848.95
2019-03-31T23:28:21.596Z,99849.31
2019-03-31T23:30:57.144Z,99847.76
2019-03-31T23:33:29.638Z,99848.63
2019-03-31T23:36:02.049Z,99844.30
2019-03-31T23:38:34.594Z,99845.78
2019-03-31T23:41:07.010Z,99834.68
2019-03-31T23:43:39.461Z,99838.30
2019-03-31T23:46:11.955Z,99837.98
2019-03-31T23:48:44.500Z,99834.81
2019-03-31T23:51:16.912Z,99836.14
2019-03-31T23:53:49.352Z,99834.86
2019-03-31T23:56:21.822Z,99837.89
2019-03-31T23:58:54.239Z,99832.61
